Terminal Aerodrome Forecast
Issued by NWS

Home | Current Version | Previous Version | Text Only | Print | Product List | Glossary On
Versions: 1 2 3 4 5 6 7 8 9 10 11 12 13 14 15 16 17 18 19 20 21 22 23 24 25 26 27 28 29 30 31 32 33 34 35 36 37
000
FTUS43 KLOT 011900 AAA
TAFDPA
TAF AMD
KDPA 011940Z 0120/0218 06020G28KT 1/2SM SN FZFG OVC009
      TEMPO 0120/0122 1/4SM +SN OVC007
     FM012200 04023G33KT 1/2SM SN BLSN OVC007
      TEMPO 0122/0202 1/4SM SN BLSN
     FM020300 02021G31KT 3/4SM -SN BLSN OVC008
     FM020600 35016G25KT 3SM BLSN OVC015
     FM021100 32012G18KT P6SM BKN025 BKN060
     FM021600 31010KT P6SM SCT200=

USA.gov is the U.S. government's official web portal to all federal, state and local government web resources and services.